createdAt,value
2019-05-20T00:01:51.945Z,99627.23
2019-05-20T00:06:55.372Z,99609.22
2019-05-20T00:11:58.801Z,99610.84
2019-05-20T00:17:02.247Z,99614.23
2019-05-20T00:22:05.695Z,99606.52
2019-05-20T00:27:09.145Z,99610.72
2019-05-20T00:32:12.586Z,99615.67
2019-05-20T00:37:16.894Z,99610.30
2019-05-20T00:42:20.429Z,99612.72
2019-05-20T00:47:23.866Z,99615.35
2019-05-20T00:52:27.398Z,99617.63
2019-05-20T00:57:30.829Z,99630.00
2019-05-20T01:02:34.259Z,99636.48
2019-05-20T01:07:37.691Z,99634.91
2019-05-20T01:12:41.130Z,99638.66
2019-05-20T01:17:44.565Z,99623.90
2019-05-20T01:22:48.007Z,99612.64
2019-05-20T01:27:51.421Z,99607.08
2019-05-20T01:32:54.859Z,99612.78
2019-05-20T01:37:58.288Z,99606.16
2019-05-20T01:43:01.720Z,99607.33
2019-05-20T01:48:05.250Z,99628.64
2019-05-20T01:53:08.755Z,99630.31
2019-05-20T01:58:12.188Z,99620.27
2019-05-20T02:03:30.209Z,99618.57
2019-05-20T02:08:20.789Z,99622.14
2019-05-20T02:13:25.842Z,99619.31
2019-05-20T02:18:29.277Z,99646.78
2019-05-20T02:23:32.690Z,99656.19
2019-05-20T02:28:36.101Z,99652.45
2019-05-20T02:33:51.171Z,99643.83
2019-05-20T02:38:44.688Z,99644.62
2019-05-20T02:43:48.281Z,99637.00
2019-05-20T02:48:51.723Z,99632.99
2019-05-20T02:53:55.170Z,99624.64
2019-05-20T02:58:58.947Z,99619.36
2019-05-20T03:04:11.508Z,99612.12
2019-05-20T03:09:11.901Z,99607.88
2019-05-20T03:14:13.148Z,99611.44
2019-05-20T03:19:16.573Z,99625.20
2019-05-20T03:24:20.023Z,99622.48
2019-05-20T03:29:23.461Z,99632.38
2019-05-20T03:34:45.754Z,99640.77
2019-05-20T03:39:32.080Z,99644.47
2019-05-20T03:44:35.517Z,99650.09
2019-05-20T03:49:38.971Z,99659.84
2019-05-20T03:54:42.376Z,99661.47
2019-05-20T03:59:45.814Z,99675.53
2019-05-20T04:05:01.440Z,99665.86
2019-05-20T04:09:54.408Z,99673.08
2019-05-20T04:14:57.833Z,99665.00
2019-05-20T04:20:01.273Z,99681.02
2019-05-20T04:25:06.118Z,99685.69
2019-05-20T04:30:09.915Z,99687.45
2019-05-20T04:35:22.429Z,99678.94
2019-05-20T04:40:18.898Z,99679.31
2019-05-20T04:45:22.324Z,99679.03
2019-05-20T04:50:25.731Z,99670.78
2019-05-20T04:55:29.181Z,99664.41
2019-05-20T05:00:50.539Z,99658.75
2019-05-20T05:05:54.466Z,99664.41
2019-05-20T05:10:57.945Z,99654.91
2019-05-20T05:16:01.378Z,99661.59
2019-05-20T05:21:04.868Z,99660.22
2019-05-20T05:26:08.374Z,99670.22
2019-05-20T05:31:11.826Z,99673.89
2019-05-20T05:36:15.250Z,99685.05
2019-05-20T05:41:18.670Z,99686.36
2019-05-20T05:46:22.084Z,99688.52
2019-05-20T05:51:37.778Z,99688.66
2019-05-20T05:56:41.226Z,99695.14
2019-05-20T06:01:44.655Z,99696.38
2019-05-20T06:06:48.084Z,99704.53
2019-05-20T06:11:51.528Z,99706.16
2019-05-20T06:16:54.946Z,99718.62
2019-05-20T06:21:58.397Z,99718.47
2019-05-20T06:27:01.827Z,99720.05
2019-05-20T06:32:05.297Z,99729.74
2019-05-20T06:37:19.573Z,99729.81
2019-05-20T06:42:23.098Z,99718.74
2019-05-20T06:47:26.526Z,99732.25
2019-05-20T06:52:35.804Z,99737.35
2019-05-20T06:57:35.069Z,99741.02
2019-05-20T07:02:38.578Z,99752.44
2019-05-20T07:07:42.051Z,99746.27
2019-05-20T07:12:45.474Z,99753.87
2019-05-20T07:17:48.951Z,99758.11
2019-05-20T07:22:55.797Z,99770.97
2019-05-20T07:27:57.515Z,99769.19
2019-05-20T07:33:00.941Z,99771.34
2019-05-20T07:38:04.431Z,99769.81
2019-05-20T07:43:07.862Z,99773.67
2019-05-20T07:48:11.539Z,99769.47
2019-05-20T07:53:15.913Z,99769.07
2019-05-20T07:58:22.207Z,99769.73
2019-05-20T08:03:25.657Z,99774.05
2019-05-20T08:08:29.103Z,99763.28
2019-05-20T08:13:32.625Z,99766.91
2019-05-20T08:18:36.107Z,99764.58
2019-05-20T08:23:40.545Z,99769.69
2019-05-20T08:28:44.014Z,99778.48
2019-05-20T08:33:47.428Z,99783.73
2019-05-20T08:38:50.870Z,99787.05
2019-05-20T08:43:54.459Z,99784.55
2019-05-20T08:48:57.879Z,99794.00
2019-05-20T08:54:01.334Z,99797.55
2019-05-20T08:59:04.787Z,99801.88
2019-05-20T09:04:08.229Z,99805.44
2019-05-20T09:09:12.505Z,99800.65
2019-05-20T09:14:16.001Z,99811.08
2019-05-20T09:19:19.425Z,99801.95
2019-05-20T09:24:22.859Z,99805.53
2019-05-20T09:29:26.275Z,99800.78
2019-05-20T09:34:30.357Z,99807.27
2019-05-20T09:39:33.786Z,99800.27
2019-05-20T09:44:37.240Z,99797.08
2019-05-20T09:49:40.666Z,99791.88
2019-05-20T09:54:45.679Z,99791.14
2019-05-20T09:59:49.185Z,99803.47
2019-05-20T10:04:52.609Z,99803.16
2019-05-20T10:09:56.050Z,99815.88
2019-05-20T10:14:59.521Z,99815.25
2019-05-20T10:20:03.034Z,99808.38
2019-05-20T10:25:07.838Z,99811.69
2019-05-20T10:30:12.290Z,99815.78
2019-05-20T10:35:17.339Z,99819.54
2019-05-20T10:40:20.932Z,99811.52
2019-05-20T10:45:24.342Z,99808.18
2019-05-20T10:50:27.784Z,99807.77
2019-05-20T10:55:31.251Z,99808.81
2019-05-20T11:00:34.646Z,99817.81
2019-05-20T11:05:38.094Z,99815.91
2019-05-20T11:10:41.532Z,99817.70
2019-05-20T11:15:44.957Z,99817.92
2019-05-20T11:20:48.418Z,99824.55
2019-05-20T11:25:51.841Z,99812.36
2019-05-20T11:30:55.272Z,99822.26
2019-05-20T11:35:58.685Z,99820.84
2019-05-20T11:41:02.144Z,99815.56
2019-05-20T11:46:05.583Z,99811.13
2019-05-20T11:51:09.000Z,99813.36
2019-05-20T11:56:12.442Z,99808.95
2019-05-20T12:01:17.352Z,99800.77
2019-05-20T12:06:20.858Z,99796.92
2019-05-20T12:11:24.304Z,99803.73
2019-05-20T12:16:27.721Z,99807.59
2019-05-20T12:21:31.175Z,99807.88
2019-05-20T12:26:34.608Z,99795.97
2019-05-20T12:31:38.118Z,99803.91
2019-05-20T12:36:41.574Z,99805.91
2019-05-20T12:41:44.997Z,99794.86
2019-05-20T12:46:48.464Z,99790.80
2019-05-20T12:51:51.899Z,99785.13
2019-05-20T12:56:55.319Z,99773.62
2019-05-20T13:01:58.760Z,99771.95
2019-05-20T13:07:02.187Z,99774.59
2019-05-20T13:12:05.617Z,99771.59
2019-05-20T13:17:09.035Z,99765.41
2019-05-20T13:22:12.468Z,99759.17
2019-05-20T13:27:15.901Z,99767.24
2019-05-20T13:32:19.336Z,99772.13
2019-05-20T13:37:22.771Z,99768.50
2019-05-20T13:42:26.198Z,99765.94
2019-05-20T13:47:29.664Z,99761.67
2019-05-20T13:52:33.067Z,99766.41
2019-05-20T13:57:36.486Z,99759.31
2019-05-20T14:02:39.914Z,99760.31
2019-05-20T14:07:43.370Z,99765.23
2019-05-20T14:12:46.821Z,99765.23
2019-05-20T14:17:50.263Z,99761.56
2019-05-20T14:22:53.687Z,99765.34
2019-05-20T14:27:57.138Z,99758.36
2019-05-20T14:33:01.138Z,99756.59
2019-05-20T14:38:04.572Z,99758.55
2019-05-20T14:43:08.026Z,99748.84
2019-05-20T14:48:11.478Z,99728.06
2019-05-20T14:53:14.877Z,99728.44
2019-05-20T14:58:18.305Z,99718.83
2019-05-20T15:03:21.729Z,99713.36
2019-05-20T15:08:25.233Z,99718.40
2019-05-20T15:13:28.725Z,99710.45
2019-05-20T15:18:32.137Z,99709.66
2019-05-20T15:23:35.582Z,99710.22
2019-05-20T15:28:39.061Z,99710.35
2019-05-20T15:33:42.482Z,99705.65
2019-05-20T15:38:45.909Z,99703.94
2019-05-20T15:43:49.328Z,99708.11
2019-05-20T15:48:52.776Z,99712.31
2019-05-20T15:53:56.217Z,99709.26
2019-05-20T15:58:59.678Z,99717.75
2019-05-20T16:04:03.114Z,99703.97
2019-05-20T16:09:06.834Z,99705.34
2019-05-20T16:14:10.288Z,99695.52
2019-05-20T16:19:13.691Z,99689.19
2019-05-20T16:24:17.126Z,99694.35
2019-05-20T16:29:20.611Z,99694.35
2019-05-20T16:34:24.145Z,99702.83
2019-05-20T16:39:30.792Z,99702.02
2019-05-20T16:44:32.748Z,99700.91
2019-05-20T16:49:36.191Z,99700.91
2019-05-20T16:54:39.622Z,99701.80
2019-05-20T16:59:43.062Z,99697.82
2019-05-20T17:04:46.466Z,99683.23
2019-05-20T17:09:49.905Z,99678.95
2019-05-20T17:14:53.345Z,99683.48
2019-05-20T17:19:56.772Z,99700.53
2019-05-20T17:25:00.210Z,99716.97
2019-05-20T17:30:05.196Z,99720.13
2019-05-20T17:35:08.695Z,99728.91
2019-05-20T17:40:12.562Z,99751.17
2019-05-20T17:45:17.226Z,99755.91
2019-05-20T17:50:22.110Z,99749.98
2019-05-20T17:55:25.874Z,99745.42
2019-05-20T18:00:29.767Z,99739.22
2019-05-20T18:05:33.285Z,99746.98
2019-05-20T18:10:36.778Z,99743.97
2019-05-20T18:15:40.218Z,99747.57
2019-05-20T18:20:43.712Z,99744.66
2019-05-20T18:25:47.142Z,99744.58
2019-05-20T18:30:51.449Z,99745.59
2019-05-20T18:35:54.882Z,99730.78
2019-05-20T18:40:58.306Z,99731.33
2019-05-20T18:46:01.735Z,99727.17
2019-05-20T18:51:05.166Z,99723.42
2019-05-20T18:56:08.594Z,99717.09
2019-05-20T19:01:12.038Z,99716.52
2019-05-20T19:06:15.487Z,99717.84
2019-05-20T19:11:18.983Z,99720.38
2019-05-20T19:16:22.425Z,99723.86
2019-05-20T19:21:25.891Z,99724.91
2019-05-20T19:26:29.349Z,99729.23
2019-05-20T19:31:32.805Z,99732.98
2019-05-20T19:36:36.240Z,99746.75
2019-05-20T19:41:39.663Z,99740.41
2019-05-20T19:46:43.188Z,99741.00
2019-05-20T19:51:46.639Z,99738.55
2019-05-20T19:56:50.062Z,99752.77
2019-05-20T20:01:54.525Z,99739.48
2019-05-20T20:06:57.942Z,99751.66
2019-05-20T20:12:01.372Z,99765.41
2019-05-20T20:17:04.829Z,99787.23
2019-05-20T20:22:08.383Z,99783.47
2019-05-20T20:27:11.797Z,99792.66
2019-05-20T20:32:15.223Z,99793.01
2019-05-20T20:37:18.655Z,99793.63
2019-05-20T20:42:22.114Z,99791.11
2019-05-20T20:47:39.374Z,99797.97
2019-05-20T20:52:32.542Z,99786.73
2019-05-20T20:57:36.164Z,99792.66
2019-05-20T21:02:52.121Z,99786.93
2019-05-20T21:07:44.744Z,99784.25
2019-05-20T21:12:48.161Z,99780.30
2019-05-20T21:17:51.630Z,99774.19
2019-05-20T21:22:55.009Z,99776.73
2019-05-20T21:27:58.509Z,99769.57
2019-05-20T21:33:09.166Z,99778.00
2019-05-20T21:38:07.067Z,99774.70
2019-05-20T21:43:10.513Z,99780.92
2019-05-20T21:48:13.929Z,99786.75
2019-05-20T21:53:17.360Z,99787.68
2019-05-20T21:58:20.796Z,99784.81
2019-05-20T22:03:25.368Z,99792.63
2019-05-20T22:08:28.989Z,99795.45
2019-05-20T22:13:32.437Z,99817.13
2019-05-20T22:18:35.868Z,99827.02
2019-05-20T22:23:49.811Z,99826.31
2019-05-20T22:28:53.225Z,99826.88
2019-05-20T22:33:56.660Z,99832.90
2019-05-20T22:39:00.128Z,99827.22
2019-05-20T22:44:03.569Z,99836.21
2019-05-20T22:49:06.999Z,99830.30
2019-05-20T22:54:10.621Z,99825.80
2019-05-20T22:59:14.232Z,99827.70
2019-05-20T23:04:17.656Z,99821.76
2019-05-20T23:09:21.123Z,99817.37
2019-05-20T23:14:25.257Z,99808.92
2019-05-20T23:19:28.728Z,99809.01
2019-05-20T23:24:32.117Z,99800.48
2019-05-20T23:29:35.540Z,99796.05
2019-05-20T23:34:39.006Z,99787.14
2019-05-20T23:39:42.479Z,99778.33
2019-05-20T23:44:45.912Z,99780.38
2019-05-20T23:49:49.349Z,99770.56
2019-05-20T23:55:37.870Z,99766.22
